Time;durP1;ratioP1;P1;durP2;ratioP2;P2;SDS_P1;SDS_P2;PMS_P1;PMS_P2;Temp;Humidity;BMP_temperature;BMP_pressure;BME280_temperature;BME280_humidity;BME280_pressure;Samples;Min_cycle;Max_cycle;Signal;HPM_P1;HPM_P2
2021/08/22 00:01:28;;;;;;;38.42;28.77;;;;;;;17.99;52.58;93818.50;5110817;28;20051;-45
2021/08/22 00:03:54;;;;;;;60.72;32.28;;;;;;;17.96;52.23;93820.41;5111498;28;20032;-47
2021/08/22 00:06:19;;;;;;;49.75;32.03;;;;;;;17.93;52.54;93818.78;5111194;28;20081;-45
2021/08/22 00:08:45;;;;;;;55.17;30.38;;;;;;;17.79;53.61;93822.59;5110973;28;20035;-46
2021/08/22 00:11:12;;;;;;;45.78;32.40;;;;;;;17.75;53.84;93817.47;5110842;28;20020;-46
2021/08/22 00:13:37;;;;;;;44.33;25.70;;;;;;;17.71;53.65;93811.59;5110506;28;20035;-47
2021/08/22 00:16:03;;;;;;;59.83;28.58;;;;;;;17.62;54.02;93820.69;5110870;27;20080;-46
2021/08/22 00:18:29;;;;;;;41.30;33.15;;;;;;;17.47;54.59;93801.41;5111023;28;20019;-45
2021/08/22 00:20:54;;;;;;;42.53;26.10;;;;;;;17.49;54.67;93823.13;5111084;28;20073;-46
2021/08/22 00:23:20;;;;;;;47.67;27.65;;;;;;;17.45;54.75;93815.91;5110629;28;20500;-49
2021/08/22 00:25:45;;;;;;;43.17;24.33;;;;;;;17.53;55.09;93820.66;5110883;28;20023;-45
2021/08/22 00:28:10;;;;;;;37.17;25.27;;;;;;;17.47;54.82;93818.16;5110935;28;20440;-46
2021/08/22 00:30:36;;;;;;;36.53;26.65;;;;;;;17.32;55.34;93810.78;5110742;27;20407;-49
2021/08/22 00:33:02;;;;;;;34.25;25.13;;;;;;;17.38;55.15;93821.66;5110461;28;20412;-46
2021/08/22 00:35:27;;;;;;;32.65;26.35;;;;;;;17.39;55.14;93820.31;5110547;28;20027;-45
2021/08/22 00:37:53;;;;;;;51.47;30.63;;;;;;;17.09;55.50;93796.47;5109888;28;20030;-46
2021/08/22 00:40:19;;;;;;;27.55;17.85;;;;;;;17.23;56.20;93824.69;5104123;28;20504;-46
2021/08/22 00:42:46;;;;;;;30.88;24.10;;;;;;;17.27;55.68;93822.22;5100956;28;20042;-46
2021/08/22 00:45:12;;;;;;;25.88;21.42;;;;;;;17.20;55.86;93825.84;5100006;28;20016;-45
2021/08/22 00:47:39;;;;;;;48.22;23.95;;;;;;;17.24;55.74;93823.38;5104191;27;20054;-46
2021/08/22 00:50:05;;;;;;;48.60;22.77;;;;;;;17.17;55.93;93822.19;5110325;28;20080;-46
2021/08/22 00:52:34;;;;;;;42.42;22.50;;;;;;;17.09;56.50;93823.63;5110479;28;20027;-46
2021/08/22 00:55:04;;;;;;;46.35;23.20;;;;;;;16.98;56.74;93821.41;5110545;28;20024;-47
2021/08/22 00:57:29;;;;;;;37.55;22.73;;;;;;;16.95;56.76;93825.34;5109990;28;20031;-45
2021/08/22 00:59:55;;;;;;;38.30;26.48;;;;;;;16.91;56.57;93825.03;5106280;28;20020;-45
2021/08/22 01:02:33;;;;;;;58.13;21.73;;;;;;;16.78;57.27;93822.63;5109923;28;20040;-48
2021/08/22 01:05:10;;;;;;;50.40;22.42;;;;;;;16.76;57.44;93825.28;5109992;28;20062;-46
2021/08/22 01:07:45;;;;;;;41.05;25.40;;;;;;;16.71;57.66;93829.06;5109066;28;20128;-48
2021/08/22 01:10:15;;;;;;;37.70;24.17;;;;;;;16.68;57.93;93822.59;5109236;28;20059;-47
2021/08/22 01:12:45;;;;;;;;;;;;;;;16.62;57.84;93825.66;5109304;28;20019;-46
2021/08/22 01:15:13;;;;;;;31.35;23.23;;;;;;;16.53;58.04;93823.53;5110337;28;19907;-46
2021/08/22 01:17:46;;;;;;;19.75;16.00;;;;;;;16.46;58.53;93821.56;5108637;28;20047;-46
2021/08/22 01:20:34;;;;;;;34.33;23.33;;;;;;;16.48;58.42;93830.09;5108788;28;20023;-47
2021/08/22 01:23:01;;;;;;;16.98;14.02;;;;;;;16.42;58.56;93821.25;5110027;28;20016;-46
2021/08/22 01:25:28;;;;;;;26.55;20.48;;;;;;;16.47;58.76;93825.84;5109797;28;20500;-48
2021/08/22 01:27:54;;;;;;;29.80;20.98;;;;;;;16.48;58.34;93829.38;5109963;28;20037;-46
2021/08/22 01:30:20;;;;;;;34.85;23.08;;;;;;;16.40;58.30;93832.25;5110145;28;20027;-44
2021/08/22 01:32:47;;;;;;;30.50;20.88;;;;;;;16.24;58.86;93827.47;5106161;28;20144;-45
2021/08/22 01:35:17;;;;;;;28.63;15.50;;;;;;;16.26;58.69;93825.56;5089754;28;20035;-46
2021/08/22 01:37:43;;;;;;;22.42;16.90;;;;;;;16.25;58.89;93828.91;5088645;28;20046;-46
2021/08/22 01:40:10;;;;;;;34.58;18.70;;;;;;;16.26;58.86;93824.84;5088558;28;20020;-46
2021/08/22 01:42:38;;;;;;;27.98;20.25;;;;;;;16.17;59.27;93819.94;5089668;28;20031;-45
2021/08/22 01:45:08;;;;;;;32.50;16.67;;;;;;;16.12;59.34;93818.88;5089537;28;20024;-45
2021/08/22 01:47:35;;;;;;;29.98;18.85;;;;;;;16.10;58.80;93821.50;5088133;28;20038;-45
2021/08/22 01:50:01;;;;;;;29.98;18.23;;;;;;;15.91;59.10;93818.56;5088847;28;20489;-45
2021/08/22 01:52:27;;;;;;;28.33;18.48;;;;;;;15.73;60.26;93823.41;5101685;28;20038;-45
2021/08/22 01:54:52;;;;;;;27.70;17.48;;;;;;;15.66;60.47;93821.44;5112301;28;20028;-46
2021/08/22 01:57:18;;;;;;;27.98;18.25;;;;;;;15.68;60.30;93821.59;5113819;28;20024;-44
2021/08/22 01:59:43;;;;;;;28.05;16.35;;;;;;;15.66;60.17;93818.66;5113083;28;20042;-47
2021/08/22 02:02:10;;;;;;;14.70;11.68;;;;;;;15.75;60.25;93814.47;5112151;28;20050;-46
2021/08/22 02:04:46;;;;;;;19.52;14.43;;;;;;;15.65;60.38;93822.03;5112254;28;20114;-48
2021/08/22 02:07:20;;;;;;;16.55;12.63;;;;;;;15.71;60.36;93825.31;5112249;28;20020;-47
2021/08/22 02:10:07;;;;;;;10.85;9.82;;;;;;;15.50;61.15;93813.84;5113345;28;20024;-46
2021/08/22 02:12:33;;;;;;;13.98;11.48;;;;;;;15.60;60.48;93814.66;5113499;28;20023;-50
2021/08/22 02:15:04;;;;;;;25.33;14.35;;;;;;;15.69;60.39;93822.34;5112305;28;20049;-49
2021/08/22 02:17:36;;;;;;;18.08;12.93;;;;;;;15.67;60.09;93819.41;5112441;28;20417;-47
2021/08/22 02:20:03;;;;;;;38.55;17.58;;;;;;;15.60;60.67;93823.00;5112313;28;20085;-48
2021/08/22 02:22:30;;;;;;;17.92;11.77;;;;;;;15.53;60.39;93813.41;5111791;28;20409;-49
2021/08/22 02:24:57;;;;;;;15.18;13.45;;;;;;;15.57;60.27;93816.53;5113037;28;20515;-47
2021/08/22 02:27:23;;;;;;;17.15;14.40;;;;;;;15.33;61.27;93819.38;5111933;28;20031;-47
2021/08/22 02:29:51;;;;;;;15.05;12.48;;;;;;;15.28;61.35;93814.78;5113234;28;20020;-48
2021/08/22 02:32:17;;;;;;;11.48;10.27;;;;;;;15.28;61.67;93812.00;5113187;28;20118;-50
2021/08/22 02:34:42;;;;;;;11.43;10.32;;;;;;;15.24;61.55;93820.75;5093966;28;20030;-47
2021/08/22 02:37:08;;;;;;;17.30;12.95;;;;;;;15.15;61.98;93813.03;5092712;28;20023;-47
2021/08/22 02:39:35;;;;;;;14.27;12.95;;;;;;;15.08;61.82;93800.66;5092623;28;20094;-48
2021/08/22 02:42:01;;;;;;;15.90;12.45;;;;;;;15.17;61.96;93816.72;5092345;28;20024;-47
2021/08/22 02:44:27;;;;;;;21.70;14.15;;;;;;;15.16;62.33;93806.91;5092422;28;20077;-49
2021/08/22 02:46:53;;;;;;;8.23;7.50;;;;;;;15.11;62.18;93810.66;5092307;28;20024;-47
2021/08/22 02:49:18;;;;;;;13.55;11.65;;;;;;;15.08;62.13;93811.06;5107180;28;20039;-47
2021/08/22 02:51:44;;;;;;;12.00;10.55;;;;;;;15.11;61.86;93818.28;5112730;28;20016;-49
2021/08/22 02:54:09;;;;;;;23.80;15.13;;;;;;;15.10;62.32;93814.00;5112754;28;20577;-47
2021/08/22 02:56:34;;;;;;;26.88;11.27;;;;;;;15.08;61.42;93811.06;5112443;27;20027;-50
2021/08/22 02:59:00;;;;;;;24.88;10.73;;;;;;;15.07;61.43;93804.03;5111994;28;20023;-47
2021/08/22 03:01:25;;;;;;;14.65;9.80;;;;;;;15.05;61.69;93809.44;5111754;28;20043;-47
2021/08/22 03:03:51;;;;;;;13.68;12.38;;;;;;;15.03;62.11;93804.41;5112283;28;20023;-46
2021/08/22 03:06:16;;;;;;;18.63;9.77;;;;;;;14.97;62.15;93805.94;5112230;28;20031;-48
2021/08/22 03:08:42;;;;;;;28.95;12.65;;;;;;;14.95;62.11;93803.00;5112250;28;20018;-49
2021/08/22 03:11:07;;;;;;;9.27;8.05;;;;;;;14.81;62.44;93812.97;5112056;28;20024;-50
2021/08/22 03:13:33;;;;;;;29.85;13.13;;;;;;;14.83;62.77;93811.09;5112298;28;20035;-49
2021/08/22 03:15:58;;;;;;;18.58;13.27;;;;;;;14.77;62.91;93807.06;5112286;28;20446;-47
2021/08/22 03:18:23;;;;;;;14.40;11.32;;;;;;;14.77;62.34;93815.41;5112011;28;20019;-48
2021/08/22 03:20:49;;;;;;;18.20;12.77;;;;;;;14.61;62.76;93812.00;5111862;28;20024;-47
2021/08/22 03:23:14;;;;;;;12.07;8.75;;;;;;;14.62;62.56;93809.97;5112232;28;20015;-46
2021/08/22 03:25:40;;;;;;;33.10;15.07;;;;;;;14.58;62.49;93810.34;5111916;28;20016;-47
2021/08/22 03:28:05;;;;;;;12.52;11.00;;;;;;;14.59;62.27;93813.84;5112107;28;20436;-47
2021/08/22 03:30:30;;;;;;;14.68;10.93;;;;;;;14.48;62.47;93809.50;5111989;28;20511;-47
2021/08/22 03:32:56;;;;;;;16.98;10.20;;;;;;;14.43;62.91;93813.97;5107889;28;20553;-46
2021/08/22 03:35:22;;;;;;;13.25;9.57;;;;;;;14.40;62.80;93809.53;5091470;28;20028;-47
2021/08/22 03:37:47;;;;;;;22.63;12.43;;;;;;;14.48;62.47;93814.31;5091122;28;20020;-48
2021/08/22 03:40:13;;;;;;;17.48;11.10;;;;;;;14.34;63.07;93814.56;5091508;28;20031;-48
2021/08/22 03:42:39;;;;;;;14.63;13.13;;;;;;;14.34;62.91;93816.59;5090968;28;20081;-47
2021/08/22 03:45:05;;;;;;;18.05;10.30;;;;;;;14.32;62.65;93822.72;5102052;28;20023;-49
2021/08/22 03:47:30;;;;;;;14.20;8.98;;;;;;;14.25;62.88;93817.19;5111558;28;20031;-48
2021/08/22 03:49:56;;;;;;;18.33;9.95;;;;;;;14.25;63.06;93817.91;5111641;27;20034;-48
2021/08/22 03:52:21;;;;;;;15.93;9.77;;;;;;;14.18;62.77;93826.31;5111333;28;20027;-47
2021/08/22 03:54:47;;;;;;;9.90;8.90;;;;;;;14.11;63.30;93824.28;5111551;28;20019;-47
2021/08/22 03:57:12;;;;;;;11.93;9.75;;;;;;;14.13;62.71;93827.25;5111523;28;20050;-47
2021/08/22 03:59:38;;;;;;;13.68;12.35;;;;;;;14.14;62.66;93825.97;5111014;27;20404;-47
2021/08/22 04:02:03;;;;;;;13.20;10.32;;;;;;;14.15;62.71;93828.16;5104435;28;20540;-48
2021/08/22 04:04:29;;;;;;;23.60;9.05;;;;;;;14.03;62.93;93829.16;5090716;28;20508;-46
2021/08/22 04:06:55;;;;;;;17.52;10.35;;;;;;;14.05;63.57;93829.31;5090740;28;20024;-49
2021/08/22 04:09:20;;;;;;;20.17;11.70;;;;;;;14.11;63.83;93835.41;5090950;28;20028;-49
2021/08/22 04:11:54;;;;;;;10.50;8.75;;;;;;;14.15;63.27;93833.72;5090731;28;20034;-47
2021/08/22 04:14:20;;;;;;;15.30;8.43;;;;;;;14.21;63.31;93833.50;5090180;28;20031;-47
2021/08/22 04:16:47;;;;;;;18.98;12.48;;;;;;;14.16;63.26;93826.13;5090456;28;20015;-49
2021/08/22 04:19:12;;;;;;;19.02;10.45;;;;;;;14.24;63.41;93837.94;5090777;28;20077;-49
2021/08/22 04:21:39;;;;;;;12.05;9.52;;;;;;;14.21;63.75;93839.03;5090304;28;20028;-49
2021/08/22 04:24:04;;;;;;;8.50;7.60;;;;;;;14.20;64.17;93843.13;5090260;28;20562;-49
2021/08/22 04:26:30;;;;;;;14.88;12.77;;;;;;;14.17;64.45;93836.66;5090590;28;20032;-49
2021/08/22 04:28:56;;;;;;;17.95;12.05;;;;;;;14.27;62.78;93843.09;5089178;28;20515;-48
2021/08/22 04:31:21;;;;;;;10.70;9.73;;;;;;;14.32;63.45;93846.97;5090087;28;20028;-48
2021/08/22 04:33:46;;;;;;;10.93;9.68;;;;;;;14.16;63.80;93849.06;5101064;28;20023;-52
2021/08/22 04:36:12;;;;;;;7.78;5.93;;;;;;;14.35;64.07;93848.66;5110848;28;20072;-48
2021/08/22 04:38:37;;;;;;;8.68;7.57;;;;;;;14.41;64.13;93851.94;5110685;28;20023;-49
2021/08/22 04:41:03;;;;;;;14.23;8.75;;;;;;;14.44;63.84;93853.59;5102068;28;20554;-49
2021/08/22 04:43:28;;;;;;;12.05;9.60;;;;;;;14.46;63.82;93858.59;5090278;28;20455;-47
2021/08/22 04:45:53;;;;;;;12.75;8.65;;;;;;;14.50;63.66;93854.09;5090467;28;20020;-49
2021/08/22 04:48:19;;;;;;;10.98;8.70;;;;;;;14.59;63.85;93858.31;5089887;28;20110;-48
2021/08/22 04:50:44;;;;;;;8.55;6.13;;;;;;;14.61;64.04;93853.69;5090354;28;20035;-49
2021/08/22 04:53:10;;;;;;;22.48;14.45;;;;;;;14.67;64.33;93856.97;5090186;28;20481;-47
2021/08/22 04:55:35;;;;;;;14.68;6.85;;;;;;;14.72;64.25;93858.78;5090220;28;20020;-48
2021/08/22 04:58:01;;;;;;;18.48;9.57;;;;;;;14.77;64.13;93857.81;5090171;28;20413;-49
2021/08/22 05:00:26;;;;;;;9.68;8.27;;;;;;;14.85;64.29;93860.56;5103613;28;20437;-48
2021/08/22 05:02:51;;;;;;;14.15;8.82;;;;;;;14.99;63.70;93858.94;5110181;28;20030;-49
2021/08/22 05:05:17;;;;;;;17.20;11.85;;;;;;;14.98;63.89;93860.28;5110402;28;20023;-48
2021/08/22 05:07:42;;;;;;;16.92;12.27;;;;;;;14.99;63.66;93865.25;5110027;28;20028;-49
2021/08/22 05:10:08;;;;;;;15.13;12.15;;;;;;;15.10;63.78;93862.03;5110115;28;20023;-48
2021/08/22 05:12:34;;;;;;;7.68;6.65;;;;;;;15.15;63.80;93861.06;5110226;28;20117;-47
2021/08/22 05:14:59;;;;;;;16.15;9.10;;;;;;;15.16;62.76;93845.09;5110041;28;20086;-47
2021/08/22 05:17:24;;;;;;;14.00;11.23;;;;;;;15.37;63.00;93853.09;5110356;28;20042;-48
2021/08/22 05:19:50;;;;;;;18.70;11.13;;;;;;;15.43;62.85;93864.72;5110115;28;20095;-47
2021/08/22 05:22:15;;;;;;;12.40;9.50;;;;;;;15.56;62.92;93858.84;5110413;28;20545;-47
2021/08/22 05:24:41;;;;;;;28.25;11.43;;;;;;;15.55;63.40;93851.84;5111862;28;20446;-49
2021/08/22 05:27:06;;;;;;;124.10;18.17;;;;;;;15.66;63.07;93856.88;5114438;28;20062;-51
2021/08/22 05:29:32;;;;;;;16.25;11.73;;;;;;;15.79;63.37;93853.78;5114344;28;20412;-49
2021/08/22 05:31:57;;;;;;;26.17;9.75;;;;;;;15.93;63.59;93857.72;5110471;28;20043;-49
2021/08/22 05:34:23;;;;;;;30.10;9.65;;;;;;;16.03;63.38;93855.75;5103143;28;20027;-49
2021/08/22 05:36:48;;;;;;;19.33;8.18;;;;;;;16.07;62.38;93838.63;5099833;28;20119;-48
2021/08/22 05:39:14;;;;;;;21.50;10.43;;;;;;;16.25;61.56;93845.63;5102917;28;20023;-48
2021/08/22 05:41:39;;;;;;;20.40;12.48;;;;;;;16.40;60.91;93848.97;5098461;28;20012;-48
2021/08/22 05:44:05;;;;;;;20.15;11.95;;;;;;;16.45;60.19;93852.81;5109370;28;20016;-50
2021/08/22 05:46:32;;;;;;;29.38;11.25;;;;;;;16.55;60.75;93854.38;5112917;28;20129;-47
2021/08/22 05:48:58;;;;;;;17.20;11.18;;;;;;;16.60;60.11;93850.59;5112788;28;20024;-50
2021/08/22 05:51:23;;;;;;;24.95;14.68;;;;;;;16.76;60.38;93855.94;5111863;28;20483;-47
2021/08/22 05:53:49;;;;;;;11.95;10.73;;;;;;;16.87;59.69;93852.63;5093498;28;20027;-49
2021/08/22 05:56:15;;;;;;;9.55;8.48;;;;;;;17.01;59.80;93853.69;5093545;28;20528;-50
2021/08/22 05:58:40;;;;;;;48.55;11.48;;;;;;;17.13;59.95;93849.06;5093176;28;20028;-47
2021/08/22 06:01:06;;;;;;;30.10;11.93;;;;;;;17.20;59.55;93832.19;5112789;28;20059;-48
2021/08/22 06:03:32;;;;;;;22.45;12.13;;;;;;;17.42;59.57;93847.81;5113242;28;20524;-47
2021/08/22 06:05:58;;;;;;;10.90;7.18;;;;;;;17.49;58.06;93839.88;5113528;28;20114;-48
2021/08/22 06:08:23;;;;;;;10.27;9.27;;;;;;;17.65;58.17;93843.91;5113638;28;20042;-47
2021/08/22 06:10:49;;;;;;;11.52;10.20;;;;;;;17.78;57.97;93846.28;5113745;28;20024;-49
2021/08/22 06:13:14;;;;;;;24.23;18.65;;;;;;;17.93;57.88;93841.13;5113588;28;20517;-47
2021/08/22 06:15:40;;;;;;;29.25;23.83;;;;;;;18.08;57.75;93838.03;5113147;28;20649;-48
2021/08/22 06:18:05;;;;;;;29.10;17.10;;;;;;;18.26;57.42;93846.28;5113844;28;20031;-50
2021/08/22 06:20:31;;;;;;;23.30;12.38;;;;;;;18.35;56.77;93843.47;5113453;28;20046;-51
2021/08/22 06:22:56;;;;;;;11.48;10.30;;;;;;;18.38;57.26;93825.53;5113473;28;20023;-48
2021/08/22 06:25:22;;;;;;;33.17;13.50;;;;;;;18.72;56.14;93839.16;5112992;28;20032;-49
2021/08/22 06:27:47;;;;;;;24.50;13.07;;;;;;;18.80;55.53;93822.19;5112967;27;20458;-47
2021/08/22 06:30:13;;;;;;;18.98;13.77;;;;;;;19.15;55.54;93834.44;5113307;28;20059;-48
2021/08/22 06:32:38;;;;;;;20.20;12.25;;;;;;;19.47;56.98;93841.50;5112362;27;20413;-50
2021/08/22 06:35:04;;;;;;;56.25;11.45;;;;;;;19.73;54.18;93834.16;5113065;28;20035;-48
2021/08/22 06:37:30;;;;;;;19.45;13.18;;;;;;;19.85;52.54;93826.53;5111886;28;20481;-49
2021/08/22 06:39:55;;;;;;;21.13;13.85;;;;;;;20.05;52.24;93839.06;5112950;28;20032;-49
2021/08/22 06:42:21;;;;;;;14.75;12.80;;;;;;;20.19;53.52;93837.91;5112737;28;20105;-49
2021/08/22 06:44:46;;;;;;;62.85;17.63;;;;;;;20.31;53.13;93838.69;5112614;28;20027;-49
2021/08/22 06:47:12;;;;;;;49.30;19.05;;;;;;;20.41;52.48;93835.81;5112550;28;20028;-47
2021/08/22 06:49:38;;;;;;;24.60;17.23;;;;;;;20.45;50.74;93824.84;5111577;28;20194;-48
2021/08/22 06:52:07;;;;;;;24.13;14.57;;;;;;;20.60;50.11;93835.63;5112390;28;20420;-48
2021/08/22 06:54:32;;;;;;;30.10;18.40;;;;;;;20.73;50.46;93835.06;5112387;28;20465;-47
2021/08/22 06:56:58;;;;;;;33.20;16.17;;;;;;;20.91;50.07;93836.19;5112653;28;20062;-47
2021/08/22 06:59:24;;;;;;;28.63;16.05;;;;;;;21.06;49.65;93827.34;5112248;28;20472;-49
2021/08/22 07:01:49;;;;;;;32.05;22.63;;;;;;;21.31;47.97;93831.63;5112024;28;20075;-49
2021/08/22 07:04:14;;;;;;;28.42;18.15;;;;;;;21.63;46.43;93819.50;5112258;28;20023;-46
2021/08/22 07:06:40;;;;;;;37.47;18.38;;;;;;;22.24;45.89;93830.09;5109225;28;20028;-49
2021/08/22 07:09:05;;;;;;;20.38;16.92;;;;;;;22.29;46.47;93833.88;5112174;28;20544;-47
2021/08/22 07:11:31;;;;;;;28.27;20.15;;;;;;;22.26;45.99;93827.41;5111967;28;20028;-49
2021/08/22 07:13:56;;;;;;;48.13;26.65;;;;;;;22.24;45.40;93826.59;5112269;28;20024;-47
2021/08/22 07:16:22;;;;;;;22.38;18.48;;;;;;;22.29;45.84;93831.81;5111989;28;20023;-47
2021/08/22 07:18:47;;;;;;;43.08;21.77;;;;;;;22.38;45.21;93828.09;5111931;28;20031;-47
2021/08/22 07:21:13;;;;;;;29.70;24.60;;;;;;;22.72;44.90;93820.84;5096813;28;20075;-47
2021/08/22 07:23:38;;;;;;;46.58;32.22;;;;;;;23.39;43.12;93830.13;5088879;28;20073;-48
2021/08/22 07:26:04;;;;;;;37.65;20.33;;;;;;;24.13;40.41;93813.50;5089147;28;20039;-47
2021/08/22 07:28:29;;;;;;;67.57;60.08;;;;;;;25.16;39.11;93828.38;5088757;28;20547;-47
2021/08/22 07:30:55;;;;;;;1536.47;758.10;;;;;;;26.10;37.73;93823.41;5106685;28;20040;-48
2021/08/22 07:33:20;;;;;;;1999.90;999.90;;;;;;;26.31;36.43;93814.38;5101696;27;20451;-47
2021/08/22 07:35:46;;;;;;;1999.90;999.90;;;;;;;27.27;36.94;93827.38;5088630;28;20425;-47
2021/08/22 07:38:11;;;;;;;1078.05;960.03;;;;;;;28.87;32.23;93823.16;5088620;28;20103;-47
2021/08/22 07:40:38;;;;;;;969.53;871.92;;;;;;;29.38;29.94;93811.97;5088811;28;20066;-44
2021/08/22 07:43:04;;;;;;;844.35;766.28;;;;;;;30.48;28.50;93825.03;5088507;28;20028;-47
2021/08/22 07:45:30;;;;;;;896.38;823.97;;;;;;;30.57;27.98;93818.13;5088648;28;20051;-47
2021/08/22 07:47:55;;;;;;;984.00;898.42;;;;;;;30.96;27.00;93819.81;5088640;28;20551;-48
2021/08/22 07:50:21;;;;;;;1070.55;968.97;;;;;;;32.54;25.36;93813.19;5088572;28;20085;-47
2021/08/22 07:52:46;;;;;;;1176.85;999.90;;;;;;;33.54;23.82;93817.72;5088334;28;20028;-46
2021/08/22 07:55:13;;;;;;;1147.00;999.90;;;;;;;33.82;23.60;93817.34;5088527;28;20088;-48
2021/08/22 07:57:39;;;;;;;1071.85;977.20;;;;;;;34.97;22.75;93824.34;5088492;28;20047;-45
2021/08/22 08:00:05;;;;;;;1020.58;937.90;;;;;;;35.62;21.59;93832.06;5099841;28;20066;-45
2021/08/22 08:02:30;;;;;;;978.00;902.25;;;;;;;35.57;20.67;93824.84;5096491;27;20048;-47
2021/08/22 08:04:56;;;;;;;962.95;882.70;;;;;;;35.84;19.92;93825.00;5088166;28;20089;-46
2021/08/22 08:07:21;;;;;;;954.42;875.17;;;;;;;36.10;19.34;93831.63;5085801;28;20401;-46
2021/08/22 08:09:47;;;;;;;937.88;864.50;;;;;;;36.63;19.11;93826.75;5085691;28;20132;-46
2021/08/22 08:12:12;;;;;;;929.05;858.70;;;;;;;36.64;19.03;93822.44;5085549;28;20477;-46
2021/08/22 08:14:38;;;;;;;926.25;855.53;;;;;;;36.77;19.46;93826.06;5085626;28;20020;-45
2021/08/22 08:17:03;;;;;;;910.33;843.05;;;;;;;37.62;18.66;93821.75;5085380;28;20032;-46
2021/08/22 08:19:29;;;;;;;882.28;821.05;;;;;;;38.23;17.80;93819.44;5083703;28;20034;-46
2021/08/22 08:21:54;;;;;;;856.75;799.58;;;;;;;37.94;17.59;93821.00;5093930;28;20028;-45
2021/08/22 08:24:20;;;;;;;830.10;776.25;;;;;;;37.82;17.49;93815.97;5094726;28;20023;-45
2021/08/22 08:26:45;;;;;;;803.95;752.67;;;;;;;37.40;17.57;93816.06;5085530;28;20054;-45
2021/08/22 08:29:11;;;;;;;833.92;780.92;;;;;;;36.65;18.35;93818.13;5085790;28;20035;-45
2021/08/22 08:31:36;;;;;;;817.40;767.00;;;;;;;35.93;17.84;93812.81;5084941;28;20752;-45
2021/08/22 08:34:05;;;;;;;835.55;780.88;;;;;;;36.38;18.66;93807.97;5098356;28;20027;-45
2021/08/22 08:36:30;;;;;;;817.67;767.42;;;;;;;36.74;18.10;93804.47;5106058;28;20556;-46
2021/08/22 08:38:56;;;;;;;718.42;676.13;;;;;;;37.36;15.99;93806.69;5106184;28;20047;-48
2021/08/22 08:41:21;;;;;;;746.47;703.13;;;;;;;38.51;16.10;93807.78;5105654;28;20028;-47
2021/08/22 08:43:47;;;;;;;676.65;639.47;;;;;;;39.47;15.14;93808.53;5105054;28;20035;-44
2021/08/22 08:46:30;;;;;;;669.58;632.30;;;;;;;39.58;15.52;93809.91;5105243;28;20510;-47
2021/08/22 08:49:02;;;;;;;599.75;567.05;;;;;;;40.52;14.53;93816.81;5094125;28;20066;-44
2021/08/22 08:51:49;;;;;;;535.85;506.90;;;;;;;41.35;13.76;93806.91;5084952;28;20032;-45
2021/08/22 08:54:30;;;;;;;402.10;382.73;;;;;;;41.96;13.04;93807.28;5084936;28;20054;-45
2021/08/22 08:57:00;;;;;;;377.58;360.27;;;;;;;42.59;12.45;93803.13;5084538;28;20477;-44
2021/08/22 08:59:25;;;;;;;277.23;265.25;;;;;;;41.60;12.90;93804.31;5087679;28;20028;-45
2021/08/22 09:01:58;;;;;;;231.32;221.45;;;;;;;39.92;14.26;93800.88;5090379;28;20062;-45
2021/08/22 09:04:26;;;;;;;252.75;241.38;;;;;;;37.52;16.70;93807.38;5105522;28;20031;-48
2021/08/22 09:07:10;;;;;;;;;;;;;;;37.97;16.27;93800.06;5105797;28;20114;-49
2021/08/22 09:10:06;;;;;;;296.92;283.80;;;;;;;36.56;17.92;93810.91;5105368;28;19915;-48
2021/08/22 09:12:53;;;;;;;376.88;358.90;;;;;;;33.32;20.93;93808.78;5097281;28;20068;-48
2021/08/22 09:15:43;;;;;;;690.38;648.17;;;;;;;31.36;24.44;93810.06;5096830;28;20025;-47
2021/08/22 09:18:36;;;;;;;867.95;804.30;;;;;;;29.55;25.60;93807.47;5092808;28;20020;-48
2021/08/22 09:21:37;;;;;;;960.17;884.63;;;;;;;29.16;25.53;93812.03;5095683;28;20040;-47
2021/08/22 09:24:41;;;;;;;1058.50;958.25;;;;;;;28.81;26.41;93800.22;5094171;28;20115;-47
2021/08/22 09:27:44;;;;;;;1126.57;999.90;;;;;;;28.96;27.58;93799.25;5075186;28;20069;-45
2021/08/22 09:30:34;;;;;;;1121.70;999.03;;;;;;;28.96;27.91;93804.94;5096712;28;20073;-46
2021/08/22 09:33:27;;;;;;;1112.35;997.65;;;;;;;29.20;27.75;93805.72;5097202;28;20120;-46
2021/08/22 09:36:01;;;;;;;1095.03;987.85;;;;;;;29.40;27.43;93799.91;5097166;28;20019;-47
2021/08/22 09:39:24;;;;;;;1031.28;936.25;;;;;;;29.54;27.95;93803.88;5095038;28;20019;-46
2021/08/22 09:42:07;;;;;;;1120.90;999.90;;;;;;;29.23;27.68;93801.56;5078911;28;20419;-48
2021/08/22 09:45:10;;;;;;;1005.53;918.03;;;;;;;28.43;29.25;93803.25;5081559;28;20631;-46
2021/08/22 09:48:12;;;;;;;970.05;893.55;;;;;;;28.60;29.44;93800.97;5091579;28;20021;-46
2021/08/22 09:50:53;;;;;;;923.40;852.50;;;;;;;28.65;29.16;93805.38;5096039;28;20038;-47
2021/08/22 09:53:56;;;;;;;944.45;874.58;;;;;;;28.76;28.06;93801.50;5095376;28;20488;-46
2021/08/22 09:56:46;;;;;;;932.53;864.80;;;;;;;28.85;28.74;93801.06;5097811;28;20504;-44
2021/08/22 09:59:26;;;;;;;938.28;871.58;;;;;;;29.03;28.44;93800.91;5091253;28;20454;-45
2021/08/22 10:02:10;;;;;;;892.67;830.55;;;;;;;29.34;27.55;93802.59;5093387;28;20055;-44
2021/08/22 10:04:41;;;;;;;949.80;871.03;;;;;;;29.42;26.64;93797.84;5095976;28;20107;-45
2021/08/22 10:07:44;;;;;;;1016.25;930.00;;;;;;;29.13;27.19;93801.22;5094635;28;20028;-48
2021/08/22 10:10:19;;;;;;;1066.35;969.10;;;;;;;29.17;26.74;93790.72;5095374;28;20031;-49
2021/08/22 10:12:45;;;;;;;1094.05;996.40;;;;;;;29.19;26.47;93792.91;5093445;28;20089;-47
2021/08/22 10:15:11;;;;;;;957.42;879.70;;;;;;;29.23;26.97;93796.59;5100609;28;20409;-49
2021/08/22 10:17:38;;;;;;;965.83;886.45;;;;;;;29.51;26.87;93791.00;5105469;28;20031;-49
2021/08/22 10:20:04;;;;;;;1097.63;990.72;;;;;;;29.79;25.47;93794.69;5110780;28;20023;-48
2021/08/22 10:22:34;;;;;;;1114.93;999.90;;;;;;;29.78;25.38;93781.09;5100378;28;20085;-47
2021/08/22 10:25:04;;;;;;;1050.15;952.60;;;;;;;30.01;26.53;93793.84;5090204;28;20028;-48
2021/08/22 10:27:30;;;;;;;1082.57;979.90;;;;;;;30.39;24.48;93789.16;5090208;28;20020;-50
2021/08/22 10:29:57;;;;;;;1055.90;958.63;;;;;;;30.64;25.57;93791.25;5090451;28;20092;-48
2021/08/22 10:32:23;;;;;;;1126.35;999.90;;;;;;;30.13;25.46;93791.31;5090165;28;20110;-47
2021/08/22 10:35:07;;;;;;;1087.50;974.75;;;;;;;31.08;24.73;93780.19;5110152;28;20477;-45
2021/08/22 10:37:36;;;;;;;1064.18;959.08;;;;;;;31.57;25.19;93782.72;5110236;28;20687;-49
2021/08/22 10:40:24;;;;;;;1116.55;997.60;;;;;;;32.98;22.43;93782.47;5110200;28;20027;-47
2021/08/22 10:43:04;;;;;;;1003.05;925.50;;;;;;;34.95;18.78;93773.41;5110470;27;20038;-46
2021/08/22 10:45:46;;;;;;;945.28;879.90;;;;;;;36.18;18.84;93759.03;5104026;28;20059;-51
2021/08/22 10:48:31;;;;;;;750.75;706.08;;;;;;;36.85;16.70;93766.34;5089924;28;20196;-49
2021/08/22 10:50:57;;;;;;;803.90;754.58;;;;;;;37.48;16.92;93764.19;5089658;28;20454;-53
2021/08/22 10:53:26;;;;;;;703.28;663.67;;;;;;;37.12;16.60;93769.97;5090060;28;20121;-49
2021/08/22 10:55:51;;;;;;;675.72;638.42;;;;;;;37.65;16.04;93730.25;5090127;28;20114;-51
2021/08/22 10:58:17;;;;;;;595.20;563.03;;;;;;;38.42;15.36;93760.22;5088901;28;20489;-47
2021/08/22 11:00:43;;;;;;;605.08;573.58;;;;;;;38.86;15.18;93753.44;5090922;28;20134;-49
2021/08/22 11:03:17;;;;;;;567.45;533.55;;;;;;;39.42;14.92;93751.53;5089438;28;20031;-49
2021/08/22 11:05:44;;;;;;;404.15;381.67;;;;;;;39.25;13.68;93740.13;5090101;28;20035;-50
2021/08/22 11:08:13;;;;;;;286.77;273.58;;;;;;;38.74;13.61;93741.28;5089246;28;20024;-49
2021/08/22 11:10:39;;;;;;;180.38;172.65;;;;;;;35.51;17.10;93744.41;5088204;28;20038;-47
2021/08/22 11:13:05;;;;;;;250.23;239.32;;;;;;;34.48;17.73;93730.69;5087980;28;20078;-49
2021/08/22 11:15:31;;;;;;;436.65;415.20;;;;;;;33.84;19.47;93734.31;5088448;28;20099;-49
2021/08/22 11:18:01;;;;;;;541.50;513.72;;;;;;;33.93;19.01;93735.84;5091728;28;20453;-50
2021/08/22 11:20:29;;;;;;;554.97;526.22;;;;;;;34.44;18.70;93742.13;5109069;28;20031;-46